sensor_id;sensor_type;location;lat;lon;timestamp;temperature;humidity
53314;DHT22;39202;51.468;7.146;2022-08-21T00:04:07;31.30;41.10
53314;DHT22;39202;51.468;7.146;2022-08-21T00:09:09;31.30;41.10
53314;DHT22;39202;51.468;7.146;2022-08-21T00:14:12;31.30;41.10
53314;DHT22;39202;51.468;7.146;2022-08-21T00:19:16;31.30;41.10
53314;DHT22;39202;51.468;7.146;2022-08-21T00:24:18;31.30;41.10
53314;DHT22;39202;51.468;7.146;2022-08-21T00:29:20;31.30;41.10
53314;DHT22;39202;51.468;7.146;2022-08-21T00:34:23;31.30;41.10
53314;DHT22;39202;51.468;7.146;2022-08-21T00:39:24;31.30;41.10
53314;DHT22;39202;51.468;7.146;2022-08-21T00:44:26;31.00;41.00
53314;DHT22;39202;51.468;7.146;2022-08-21T00:49:29;31.30;41.20
53314;DHT22;39202;51.468;7.146;2022-08-21T00:54:32;31.20;41.10
53314;DHT22;39202;51.468;7.146;2022-08-21T00:59:37;31.20;41.10
53314;DHT22;39202;51.468;7.146;2022-08-21T01:04:40;31.20;41.10
53314;DHT22;39202;51.468;7.146;2022-08-21T01:09:43;31.20;41.10
53314;DHT22;39202;51.468;7.146;2022-08-21T01:14:45;31.20;41.10
53314;DHT22;39202;51.468;7.146;2022-08-21T01:19:48;31.20;41.10
53314;DHT22;39202;51.468;7.146;2022-08-21T01:24:51;31.20;41.10
53314;DHT22;39202;51.468;7.146;2022-08-21T01:29:56;31.20;41.10
53314;DHT22;39202;51.468;7.146;2022-08-21T01:34:58;31.20;41.10
53314;DHT22;39202;51.468;7.146;2022-08-21T01:40:02;31.20;41.10
53314;DHT22;39202;51.468;7.146;2022-08-21T01:45:05;31.10;41.10
53314;DHT22;39202;51.468;7.146;2022-08-21T01:50:11;31.20;41.80
53314;DHT22;39202;51.468;7.146;2022-08-21T01:55:16;31.10;41.10
53314;DHT22;39202;51.468;7.146;2022-08-21T02:00:20;31.10;41.10
53314;DHT22;39202;51.468;7.146;2022-08-21T02:05:23;31.20;41.20
53314;DHT22;39202;51.468;7.146;2022-08-21T02:10:28;31.10;41.10
53314;DHT22;39202;51.468;7.146;2022-08-21T02:15:30;31.10;41.10
53314;DHT22;39202;51.468;7.146;2022-08-21T02:20:35;31.10;41.20
53314;DHT22;39202;51.468;7.146;2022-08-21T02:25:39;31.10;41.20
53314;DHT22;39202;51.468;7.146;2022-08-21T02:30:43;31.10;41.10
53314;DHT22;39202;51.468;7.146;2022-08-21T02:35:46;31.10;41.10
53314;DHT22;39202;51.468;7.146;2022-08-21T02:40:51;31.00;41.10
53314;DHT22;39202;51.468;7.146;2022-08-21T02:45:53;31.00;41.10
53314;DHT22;39202;51.468;7.146;2022-08-21T02:50:59;31.00;41.10
53314;DHT22;39202;51.468;7.146;2022-08-21T02:56:06;31.00;41.10
53314;DHT22;39202;51.468;7.146;2022-08-21T03:01:09;31.00;41.10
53314;DHT22;39202;51.468;7.146;2022-08-21T03:06:13;31.00;41.10
53314;DHT22;39202;51.468;7.146;2022-08-21T03:11:16;31.10;41.00
53314;DHT22;39202;51.468;7.146;2022-08-21T03:16:20;31.00;41.00
53314;DHT22;39202;51.468;7.146;2022-08-21T03:21:22;31.00;41.00
53314;DHT22;39202;51.468;7.146;2022-08-21T03:26:25;31.00;41.00
53314;DHT22;39202;51.468;7.146;2022-08-21T03:31:27;31.00;41.00
53314;DHT22;39202;51.468;7.146;2022-08-21T03:36:31;30.90;41.00
53314;DHT22;39202;51.468;7.146;2022-08-21T03:41:34;30.90;41.00
53314;DHT22;39202;51.468;7.146;2022-08-21T03:46:36;30.90;41.00
53314;DHT22;39202;51.468;7.146;2022-08-21T03:51:37;30.90;41.00
53314;DHT22;39202;51.468;7.146;2022-08-21T03:56:41;30.90;41.00
53314;DHT22;39202;51.468;7.146;2022-08-21T04:01:51;30.90;41.00
53314;DHT22;39202;51.468;7.146;2022-08-21T04:06:53;30.90;41.00
53314;DHT22;39202;51.468;7.146;2022-08-21T04:11:58;30.90;41.00
53314;DHT22;39202;51.468;7.146;2022-08-21T04:17:00;30.80;41.00
53314;DHT22;39202;51.468;7.146;2022-08-21T04:22:01;30.90;41.00
53314;DHT22;39202;51.468;7.146;2022-08-21T04:27:05;30.80;41.00
53314;DHT22;39202;51.468;7.146;2022-08-21T04:32:06;30.80;41.00
53314;DHT22;39202;51.468;7.146;2022-08-21T04:37:08;30.80;41.00
53314;DHT22;39202;51.468;7.146;2022-08-21T04:42:11;30.80;41.00
53314;DHT22;39202;51.468;7.146;2022-08-21T04:47:13;30.80;41.00
53314;DHT22;39202;51.468;7.146;2022-08-21T04:52:19;30.80;41.00
53314;DHT22;39202;51.468;7.146;2022-08-21T04:57:23;30.80;41.00
53314;DHT22;39202;51.468;7.146;2022-08-21T05:02:26;30.70;40.90
53314;DHT22;39202;51.468;7.146;2022-08-21T05:07:30;30.70;40.90
53314;DHT22;39202;51.468;7.146;2022-08-21T05:12:34;30.70;40.90
53314;DHT22;39202;51.468;7.146;2022-08-21T05:17:36;30.80;41.00
53314;DHT22;39202;51.468;7.146;2022-08-21T05:22:38;30.70;40.80
53314;DHT22;39202;51.468;7.146;2022-08-21T05:27:41;30.80;41.00
53314;DHT22;39202;51.468;7.146;2022-08-21T05:32:42;30.80;41.00
53314;DHT22;39202;51.468;7.146;2022-08-21T05:37:44;30.80;40.90
53314;DHT22;39202;51.468;7.146;2022-08-21T05:42:48;30.80;40.90
53314;DHT22;39202;51.468;7.146;2022-08-21T05:47:49;30.80;40.90
53314;DHT22;39202;51.468;7.146;2022-08-21T05:52:51;30.70;40.80
53314;DHT22;39202;51.468;7.146;2022-08-21T05:57:54;30.80;40.90
53314;DHT22;39202;51.468;7.146;2022-08-21T06:02:56;30.70;40.80
53314;DHT22;39202;51.468;7.146;2022-08-21T06:07:57;30.70;40.80
53314;DHT22;39202;51.468;7.146;2022-08-21T06:13:00;30.70;40.80
53314;DHT22;39202;51.468;7.146;2022-08-21T06:18:02;30.70;40.80
53314;DHT22;39202;51.468;7.146;2022-08-21T06:23:04;30.80;40.90
53314;DHT22;39202;51.468;7.146;2022-08-21T06:28:09;30.80;40.90
53314;DHT22;39202;51.468;7.146;2022-08-21T06:33:11;30.80;40.90
53314;DHT22;39202;51.468;7.146;2022-08-21T06:38:13;30.90;40.90
53314;DHT22;39202;51.468;7.146;2022-08-21T06:43:16;30.90;40.80
53314;DHT22;39202;51.468;7.146;2022-08-21T06:48:18;31.00;40.80
53314;DHT22;39202;51.468;7.146;2022-08-21T06:53:20;31.10;40.80
53314;DHT22;39202;51.468;7.146;2022-08-21T06:58:23;31.10;40.70
53314;DHT22;39202;51.468;7.146;2022-08-21T07:03:29;31.20;40.70
53314;DHT22;39202;51.468;7.146;2022-08-21T07:08:31;31.30;40.60
53314;DHT22;39202;51.468;7.146;2022-08-21T07:13:34;31.30;40.60
53314;DHT22;39202;51.468;7.146;2022-08-21T07:18:36;31.30;40.50
53314;DHT22;39202;51.468;7.146;2022-08-21T07:23:39;31.40;40.50
53314;DHT22;39202;51.468;7.146;2022-08-21T07:28:43;31.50;40.50
53314;DHT22;39202;51.468;7.146;2022-08-21T07:33:45;31.50;40.40
53314;DHT22;39202;51.468;7.146;2022-08-21T07:38:47;31.60;40.40
53314;DHT22;39202;51.468;7.146;2022-08-21T07:43:50;31.60;40.30
53314;DHT22;39202;51.468;7.146;2022-08-21T07:48:53;31.60;40.20
53314;DHT22;39202;51.468;7.146;2022-08-21T07:53:57;31.60;40.20
53314;DHT22;39202;51.468;7.146;2022-08-21T07:59:00;31.70;40.20
53314;DHT22;39202;51.468;7.146;2022-08-21T08:04:03;31.80;40.20
53314;DHT22;39202;51.468;7.146;2022-08-21T08:09:05;31.80;40.10
53314;DHT22;39202;51.468;7.146;2022-08-21T08:14:08;31.90;40.00
53314;DHT22;39202;51.468;7.146;2022-08-21T08:19:09;31.90;40.00
53314;DHT22;39202;51.468;7.146;2022-08-21T08:24:11;31.90;39.90
53314;DHT22;39202;51.468;7.146;2022-08-21T08:29:14;32.00;39.90
53314;DHT22;39202;51.468;7.146;2022-08-21T08:34:16;32.00;39.80
53314;DHT22;39202;51.468;7.146;2022-08-21T08:39:20;32.10;40.00
53314;DHT22;39202;51.468;7.146;2022-08-21T08:44:23;32.10;39.70
53314;DHT22;39202;51.468;7.146;2022-08-21T08:49:31;32.20;39.70
53314;DHT22;39202;51.468;7.146;2022-08-21T08:54:37;32.20;39.50
53314;DHT22;39202;51.468;7.146;2022-08-21T08:59:44;32.30;39.50
53314;DHT22;39202;51.468;7.146;2022-08-21T09:04:47;32.30;39.50
53314;DHT22;39202;51.468;7.146;2022-08-21T09:10:02;32.40;39.50
53314;DHT22;39202;51.468;7.146;2022-08-21T09:15:15;32.40;39.30
53314;DHT22;39202;51.468;7.146;2022-08-21T09:20:23;32.50;39.30
53314;DHT22;39202;51.468;7.146;2022-08-21T09:25:33;32.50;39.30
53314;DHT22;39202;51.468;7.146;2022-08-21T09:30:39;32.60;39.20
53314;DHT22;39202;51.468;7.146;2022-08-21T09:35:48;32.60;39.10
53314;DHT22;39202;51.468;7.146;2022-08-21T09:40:57;32.70;39.00
53314;DHT22;39202;51.468;7.146;2022-08-21T09:46:07;32.70;39.00
53314;DHT22;39202;51.468;7.146;2022-08-21T09:51:12;32.70;38.90
53314;DHT22;39202;51.468;7.146;2022-08-21T09:56:21;32.80;39.00
53314;DHT22;39202;51.468;7.146;2022-08-21T10:01:48;32.80;38.90
53314;DHT22;39202;51.468;7.146;2022-08-21T10:06:50;32.80;38.80
53314;DHT22;39202;51.468;7.146;2022-08-21T10:11:57;32.90;38.80
53314;DHT22;39202;51.468;7.146;2022-08-21T10:17:05;32.90;38.40
53314;DHT22;39202;51.468;7.146;2022-08-21T10:22:18;32.90;38.40
53314;DHT22;39202;51.468;7.146;2022-08-21T10:27:32;33.00;38.20
53314;DHT22;39202;51.468;7.146;2022-08-21T10:32:46;33.00;38.20
53314;DHT22;39202;51.468;7.146;2022-08-21T10:38:01;33.10;38.20
53314;DHT22;39202;51.468;7.146;2022-08-21T10:43:16;33.10;38.10
53314;DHT22;39202;51.468;7.146;2022-08-21T10:48:28;33.10;38.00
53314;DHT22;39202;51.468;7.146;2022-08-21T10:59:02;33.20;37.90
53314;DHT22;39202;51.468;7.146;2022-08-21T11:04:12;33.30;37.90
53314;DHT22;39202;51.468;7.146;2022-08-21T11:09:20;33.20;37.70
53314;DHT22;39202;51.468;7.146;2022-08-21T11:14:28;33.30;37.90
53314;DHT22;39202;51.468;7.146;2022-08-21T11:19:38;33.30;37.70
53314;DHT22;39202;51.468;7.146;2022-08-21T11:24:46;33.40;37.50
53314;DHT22;39202;51.468;7.146;2022-08-21T11:29:52;33.40;37.40
53314;DHT22;39202;51.468;7.146;2022-08-21T11:35:02;33.40;37.40
53314;DHT22;39202;51.468;7.146;2022-08-21T11:40:12;33.40;37.00
53314;DHT22;39202;51.468;7.146;2022-08-21T11:45:22;33.40;37.00
53314;DHT22;39202;51.468;7.146;2022-08-21T11:50:31;33.70;37.10
53314;DHT22;39202;51.468;7.146;2022-08-21T11:55:37;33.40;36.90
53314;DHT22;39202;51.468;7.146;2022-08-21T12:00:43;33.40;37.80
53314;DHT22;39202;51.468;7.146;2022-08-21T12:05:57;34.20;37.10
53314;DHT22;39202;51.468;7.146;2022-08-21T12:11:03;33.40;36.50
53314;DHT22;39202;51.468;7.146;2022-08-21T12:16:06;33.40;36.80
53314;DHT22;39202;51.468;7.146;2022-08-21T12:21:26;34.10;37.00
53314;DHT22;39202;51.468;7.146;2022-08-21T12:26:32;34.00;36.80
53314;DHT22;39202;51.468;7.146;2022-08-21T12:31:34;34.20;37.20
53314;DHT22;39202;51.468;7.146;2022-08-21T12:36:44;33.50;37.10
53314;DHT22;39202;51.468;7.146;2022-08-21T12:41:50;34.00;36.80
53314;DHT22;39202;51.468;7.146;2022-08-21T12:46:56;33.50;36.50
53314;DHT22;39202;51.468;7.146;2022-08-21T12:52:09;33.50;36.40
53314;DHT22;39202;51.468;7.146;2022-08-21T12:57:19;33.50;36.40
53314;DHT22;39202;51.468;7.146;2022-08-21T13:02:26;33.50;36.40
53314;DHT22;39202;51.468;7.146;2022-08-21T13:07:34;33.70;36.40
53314;DHT22;39202;51.468;7.146;2022-08-21T13:12:36;33.50;36.20
53314;DHT22;39202;51.468;7.146;2022-08-21T13:17:41;33.50;36.00
53314;DHT22;39202;51.468;7.146;2022-08-21T13:22:45;34.10;36.70
53314;DHT22;39202;51.468;7.146;2022-08-21T13:27:58;33.40;35.90
53314;DHT22;39202;51.468;7.146;2022-08-21T13:33:02;33.90;36.50
53314;DHT22;39202;51.468;7.146;2022-08-21T13:38:09;33.40;36.10
53314;DHT22;39202;51.468;7.146;2022-08-21T13:43:12;33.80;36.20
53314;DHT22;39202;51.468;7.146;2022-08-21T13:48:15;33.40;36.10
53314;DHT22;39202;51.468;7.146;2022-08-21T13:53:29;33.50;36.00
53314;DHT22;39202;51.468;7.146;2022-08-21T13:58:42;33.70;36.20
53314;DHT22;39202;51.468;7.146;2022-08-21T14:03:45;32.80;35.70
53314;DHT22;39202;51.468;7.146;2022-08-21T14:08:52;34.10;36.50
53314;DHT22;39202;51.468;7.146;2022-08-21T14:13:58;33.30;36.00
53314;DHT22;39202;51.468;7.146;2022-08-21T14:19:11;33.90;36.40
53314;DHT22;39202;51.468;7.146;2022-08-21T14:24:28;33.30;36.10
53314;DHT22;39202;51.468;7.146;2022-08-21T14:29:36;33.30;36.20
53314;DHT22;39202;51.468;7.146;2022-08-21T14:34:38;33.30;36.20
53314;DHT22;39202;51.468;7.146;2022-08-21T14:39:42;33.30;36.00
53314;DHT22;39202;51.468;7.146;2022-08-21T14:44:45;33.20;35.90
53314;DHT22;39202;51.468;7.146;2022-08-21T14:49:49;33.20;36.00
53314;DHT22;39202;51.468;7.146;2022-08-21T14:54:55;33.90;36.40
53314;DHT22;39202;51.468;7.146;2022-08-21T14:59:57;33.10;35.90
53314;DHT22;39202;51.468;7.146;2022-08-21T15:05:01;33.10;35.90
53314;DHT22;39202;51.468;7.146;2022-08-21T15:10:07;34.00;36.30
53314;DHT22;39202;51.468;7.146;2022-08-21T15:15:09;33.10;36.00
53314;DHT22;39202;51.468;7.146;2022-08-21T15:20:11;33.10;36.00
53314;DHT22;39202;51.468;7.146;2022-08-21T15:25:16;33.90;36.30
53314;DHT22;39202;51.468;7.146;2022-08-21T15:30:18;33.40;36.00
53314;DHT22;39202;51.468;7.146;2022-08-21T15:35:19;33.00;35.90
53314;DHT22;39202;51.468;7.146;2022-08-21T15:40:26;33.00;35.90
53314;DHT22;39202;51.468;7.146;2022-08-21T15:45:28;33.50;36.20
53314;DHT22;39202;51.468;7.146;2022-08-21T15:50:30;33.50;36.00
53314;DHT22;39202;51.468;7.146;2022-08-21T15:55:34;33.00;35.80
53314;DHT22;39202;51.468;7.146;2022-08-21T16:00:36;32.60;35.40
53314;DHT22;39202;51.468;7.146;2022-08-21T16:05:38;33.10;35.90
53314;DHT22;39202;51.468;7.146;2022-08-21T16:10:41;33.50;36.00
53314;DHT22;39202;51.468;7.146;2022-08-21T16:15:43;32.90;35.60
53314;DHT22;39202;51.468;7.146;2022-08-21T16:20:46;33.30;35.80
53314;DHT22;39202;51.468;7.146;2022-08-21T16:25:49;32.90;35.60
53314;DHT22;39202;51.468;7.146;2022-08-21T16:30:51;32.80;35.40
53314;DHT22;39202;51.468;7.146;2022-08-21T16:35:53;33.30;35.80
53314;DHT22;39202;51.468;7.146;2022-08-21T16:40:57;33.10;35.60
53314;DHT22;39202;51.468;7.146;2022-08-21T16:45:59;33.50;36.10
53314;DHT22;39202;51.468;7.146;2022-08-21T16:51:01;33.50;36.00
53314;DHT22;39202;51.468;7.146;2022-08-21T16:56:06;32.80;35.50
53314;DHT22;39202;51.468;7.146;2022-08-21T17:01:11;33.10;35.90
53314;DHT22;39202;51.468;7.146;2022-08-21T17:06:15;32.80;35.70
53314;DHT22;39202;51.468;7.146;2022-08-21T17:11:24;33.30;36.00
53314;DHT22;39202;51.468;7.146;2022-08-21T17:16:28;32.90;35.80
53314;DHT22;39202;51.468;7.146;2022-08-21T17:21:30;32.90;36.50
53314;DHT22;39202;51.468;7.146;2022-08-21T17:26:35;33.50;36.00
53314;DHT22;39202;51.468;7.146;2022-08-21T17:31:38;33.10;35.90
53314;DHT22;39202;51.468;7.146;2022-08-21T17:36:40;33.10;35.90
53314;DHT22;39202;51.468;7.146;2022-08-21T17:41:45;32.70;35.50
53314;DHT22;39202;51.468;7.146;2022-08-21T17:46:47;32.70;35.00
53314;DHT22;39202;51.468;7.146;2022-08-21T18:09:55;32.70;35.70
53314;DHT22;39202;51.468;7.146;2022-08-21T18:14:57;32.60;35.60
53314;DHT22;39202;51.468;7.146;2022-08-21T18:19:59;32.50;35.70
53314;DHT22;39202;51.468;7.146;2022-08-21T18:25:03;32.60;35.80
53314;DHT22;39202;51.468;7.146;2022-08-21T18:30:06;32.50;35.70
53314;DHT22;39202;51.468;7.146;2022-08-21T18:35:08;32.50;35.80
53314;DHT22;39202;51.468;7.146;2022-08-21T18:40:12;32.50;36.40
53314;DHT22;39202;51.468;7.146;2022-08-21T18:45:17;32.50;35.90
53314;DHT22;39202;51.468;7.146;2022-08-21T18:50:22;32.40;35.80
53314;DHT22;39202;51.468;7.146;2022-08-21T18:55:25;32.50;35.90
53314;DHT22;39202;51.468;7.146;2022-08-21T19:00:31;32.40;35.80
53314;DHT22;39202;51.468;7.146;2022-08-21T19:05:34;32.40;35.80
53314;DHT22;39202;51.468;7.146;2022-08-21T19:10:38;32.40;35.90
53314;DHT22;39202;51.468;7.146;2022-08-21T19:15:42;32.40;35.80
53314;DHT22;39202;51.468;7.146;2022-08-21T19:20:46;32.40;35.80
53314;DHT22;39202;51.468;7.146;2022-08-21T19:25:51;32.40;35.80
53314;DHT22;39202;51.468;7.146;2022-08-21T19:30:59;32.30;35.80
53314;DHT22;39202;51.468;7.146;2022-08-21T19:36:05;32.30;35.90
53314;DHT22;39202;51.468;7.146;2022-08-21T19:41:12;32.30;35.90
53314;DHT22;39202;51.468;7.146;2022-08-21T19:46:19;32.30;36.00
53314;DHT22;39202;51.468;7.146;2022-08-21T19:51:21;32.30;36.00
53314;DHT22;39202;51.468;7.146;2022-08-21T19:56:26;32.30;36.00
53314;DHT22;39202;51.468;7.146;2022-08-21T20:01:29;32.30;36.10
53314;DHT22;39202;51.468;7.146;2022-08-21T20:06:30;32.20;36.00
53314;DHT22;39202;51.468;7.146;2022-08-21T20:11:37;32.20;36.00
53314;DHT22;39202;51.468;7.146;2022-08-21T20:16:40;32.20;36.00
53314;DHT22;39202;51.468;7.146;2022-08-21T20:21:42;32.20;36.10
53314;DHT22;39202;51.468;7.146;2022-08-21T20:26:46;32.20;36.20
53314;DHT22;39202;51.468;7.146;2022-08-21T20:31:49;32.20;36.20
53314;DHT22;39202;51.468;7.146;2022-08-21T20:36:50;32.20;36.20
53314;DHT22;39202;51.468;7.146;2022-08-21T20:41:54;32.20;36.30
53314;DHT22;39202;51.468;7.146;2022-08-21T20:46:57;32.20;36.40
53314;DHT22;39202;51.468;7.146;2022-08-21T20:52:00;32.10;36.30
53314;DHT22;39202;51.468;7.146;2022-08-21T20:57:09;32.10;36.40
53314;DHT22;39202;51.468;7.146;2022-08-21T21:02:38;32.10;36.40
53314;DHT22;39202;51.468;7.146;2022-08-21T21:07:51;32.10;36.40
53314;DHT22;39202;51.468;7.146;2022-08-21T21:12:59;32.10;36.50
53314;DHT22;39202;51.468;7.146;2022-08-21T21:18:07;32.10;36.50
53314;DHT22;39202;51.468;7.146;2022-08-21T21:23:18;32.00;36.50
53314;DHT22;39202;51.468;7.146;2022-08-21T21:28:26;32.00;36.50
53314;DHT22;39202;51.468;7.146;2022-08-21T21:33:30;32.00;36.60
53314;DHT22;39202;51.468;7.146;2022-08-21T21:38:36;32.00;36.60
53314;DHT22;39202;51.468;7.146;2022-08-21T21:43:54;32.00;36.60
53314;DHT22;39202;51.468;7.146;2022-08-21T21:49:06;32.00;36.70
53314;DHT22;39202;51.468;7.146;2022-08-21T21:54:17;32.00;36.70
53314;DHT22;39202;51.468;7.146;2022-08-21T21:59:44;32.00;36.80
53314;DHT22;39202;51.468;7.146;2022-08-21T22:04:55;32.00;36.80
53314;DHT22;39202;51.468;7.146;2022-08-21T22:10:05;31.90;36.70
53314;DHT22;39202;51.468;7.146;2022-08-21T22:15:13;31.90;36.80
53314;DHT22;39202;51.468;7.146;2022-08-21T22:20:22;31.90;36.80
53314;DHT22;39202;51.468;7.146;2022-08-21T22:25:29;31.90;36.80
53314;DHT22;39202;51.468;7.146;2022-08-21T22:30:42;31.90;36.80
53314;DHT22;39202;51.468;7.146;2022-08-21T22:35:46;31.90;36.90
53314;DHT22;39202;51.468;7.146;2022-08-21T22:40:48;31.90;36.90
53314;DHT22;39202;51.468;7.146;2022-08-21T22:46:00;31.90;36.90
53314;DHT22;39202;51.468;7.146;2022-08-21T22:51:07;31.00;36.40
53314;DHT22;39202;51.468;7.146;2022-08-21T22:56:27;31.90;37.00
53314;DHT22;39202;51.468;7.146;2022-08-21T23:01:37;31.80;37.10
53314;DHT22;39202;51.468;7.146;2022-08-21T23:06:41;31.40;36.80
53314;DHT22;39202;51.468;7.146;2022-08-21T23:11:44;31.80;37.10
53314;DHT22;39202;51.468;7.146;2022-08-21T23:16:52;31.80;37.10
53314;DHT22;39202;51.468;7.146;2022-08-21T23:22:03;31.80;37.20
53314;DHT22;39202;51.468;7.146;2022-08-21T23:27:11;31.80;37.20
53314;DHT22;39202;51.468;7.146;2022-08-21T23:32:28;31.70;37.10
53314;DHT22;39202;51.468;7.146;2022-08-21T23:37:40;31.70;37.20
53314;DHT22;39202;51.468;7.146;2022-08-21T23:43:01;31.70;43.40
53314;DHT22;39202;51.468;7.146;2022-08-21T23:48:17;31.70;46.40
53314;DHT22;39202;51.468;7.146;2022-08-21T23:53:32;31.70;44.80
53314;DHT22;39202;51.468;7.146;2022-08-21T23:58:43;31.70;43.80
